Tiempo atmosférico en la estación meteorológica de Benasque, Huesca (1120 m.)



Fecha
DESCASC
Temp. máxima en grados centígrados (hora)
DESCASC
Temp. mínima en grados centígrados (hora)
DESCASC
Temp. media en grados centígrados
DESCASC
Racha de viento máxima en m/sg (hora)
DESCASC
Velocidad máxima media en intervalos de 10 minutos(hora)
DESCASC
Precipitaciones diarias en mm
DESCASC
Precipitaciones de 00:00 a 06:00 en mm
DESCASC
Precipitaciones de 06:00 a 12:00 en mm
DESCASC
Precipitaciones de 12:00 a 18:00 en mm
DESCASC
Precipitaciones de 18:00 a 24:00 en mm
DESCASC
22-01-2020 5.4 (12:50) 0 (03:40) 2.7 8.06 (07:40) 3.61 (07:40) 28.8 11 0 8.4 9.4
21-01-2020 8.2 (15:30) -0.3 (00:00) 3.9 5.56 (15:50) 2.78 (15:30) 0 0 0 0 0
20-01-2020 8 (16:10) -0.6 (03:10) 3.7 18.33 (04:30) 10.56 (04:20) 0 0 0 0 0
19-01-2020 5.3 (11:30) -0.6 (-00:0) 2.4 23.61 (19:50) 13.33 (16:40) 0.2 0.2 0 0 0
18-01-2020 8.8 (15:20) -5.4 (-00:0) 1.7 4.17 (15:00) 2.5 (15:00) 0 0 0 0 0
17-01-2020 8.1 (13:00) -3.6 (-00:0) 2.3 9.72 (20:00) 4.72 (13:20) 0.2 0 0 0.2 0
16-01-2020 12.9 (15:30) -5.2 (-00:0) 3.8 5.28 (16:00) 2.22 (15:50) 0 0 0 0 0
15-01-2020 12.7 (15:20) -6.4 (-00:0) 3.1 3.89 (15:50) 2.5 (15:50) 0 0 0 0 0
14-01-2020 12.2 (15:30) -6.2 (-00:0) 3 3.33 (15:40) 1.94 (15:50) 0 0 0 0 0
13-01-2020 10.9 (14:50) -6.6 (-00:0) 2.1 3.33 (15:50) 2.22 (15:30) 0 0 0 0 0
12-01-2020 12.5 (15:40) -6.8 (-00:0) 2.8 3.89 (15:20) 2.5 (15:10) 0 0 0 0 0
11-01-2020 12.1 (15:20) -4.7 (-00:0) 3.7 15 (00:10) 6.67 (01:00) 0 0 0 0 0
10-01-2020 8.3 (15:10) 1.3 (00:00) 4.8 18.06 (18:20) 9.72 (21:30) 0.6 0.6 0 0 0
09-01-2020 12.7 (15:20) -3.6 (-00:0) 4.5 5.28 (15:30) 3.06 (15:30) 0 0 0 0 0
08-01-2020 14 (15:20) -1.2 (-00:0) 6.4 5 (16:10) 3.06 (13:40) 0 0 0 0 0
07-01-2020 15.2 (15:10) -4.3 (-00:0) 5.4 7.22 (20:20) 2.5 (20:30) 0 0 0 0 0
06-01-2020 13.2 (15:10) -3.9 (-00:0) 4.6 4.72 (15:40) 2.22 (15:30) 0 0 0 0 0
05-01-2020 16.2 (15:10) -1.5 (-00:0) 7.4 11.39 (06:20) 5 (10:50) 0 0 0 0 0
04-01-2020 11 (14:40) -4.4 (-00:0) 3.3 7.78 (14:20) 3.33 (13:00) 0 0 0 0 0
03-01-2020 11 (17:00) -2.9 (-00:0) 4 14.72 (17:20) 5.83 (17:20) 0 0 0 0 0
02-01-2020 12.9 (15:00) -4.1 (-00:0) 4.4 2.5 (15:50) 1.67 (15:40) 0 0 0 0 0
01-01-2020 12.1 (14:40) -4.1 (-00:0) 4 2.5 (07:40) 1.11 (14:20) 0 0 0 0 0
31-12-2019 13.5 (15:20) -2.7 (-00:0) 5.4 3.06 (15:00) 2.22 (15:00) 0 0 0 0 0
30-12-2019 -- (--) -- (--) -- -- (--) -- (--) -- 0 0 0 --
29-12-2019 12.8 (15:10) -3.9 (-00:0) 4.5 3.33 (17:10) 1.39 (16:40) 0 0 0 0 0
28-12-2019 15 (15:40) -1.6 (-00:0) 6.7 6.67 (01:50) 3.61 (01:40) 0 0 0 0 0
27-12-2019 16.6 (14:50) -2.9 (-00:0) 6.9 10.83 (17:30) 5.56 (16:40) 0 0 0 0 0
26-12-2019 14.9 (15:40) -1.5 (-00:0) 6.7 16.94 (10:10) 7.5 (09:10) 0 0 0 0 0
25-12-2019 14.8 (15:20) -1.5 (-00:0) 6.7 2.78 (11:00) 1.39 (09:50) 0 0 0 0 0
24-12-2019 13 (15:40) -1 (-00:0) 6 4.17 (06:20) 1.94 (06:20) 0 0 0 0 0

Gráficas

Temp. máximas Temp. mínimas Temp. medias Precipitaciones Rachas de viento máximas Velocidades máximas media en intervalos de 10 minutos

Datos horarios

Fecha y hora oficial Temperatura (ºC) Velocidad del viento (km/h) Dirección del viento Racha (km/h) Dirección de racha Precipitación (mm) Presión (hPa) Tendencia (hPa) Humedad (%)
2020-01-22 23:00:00 1.5 5 Sur 15 Oeste 1.6 -- -- 99
2020-01-22 22:00:00 1 5 Sur 14 Noroeste 1.2 -- -- 99
2020-01-22 21:00:00 0.9 3 Este 7 Noroeste 1.6 -- -- 99
2020-01-22 20:00:00 0.7 4 Oeste 10 Oeste 1.4 -- -- 98
2020-01-22 19:00:00 0.6 4 Sur 12 Sudeste 1.4 -- -- 98
2020-01-22 18:00:00 0.3 4 Norte 8 Noroeste 2.4 -- -- 98
2020-01-22 17:00:00 0.8 4 Sudoeste 6 Noroeste 3 -- -- 97
2020-01-22 16:00:00 2.1 3 Sudoeste 12 Este 2.6 -- -- 93
2020-01-22 15:00:00 3.6 2 Nordeste 8 Nordeste 0.4 -- -- 90
2020-01-22 14:00:00 4.3 4 Este 12 Oeste 0 -- -- 89
2020-01-22 13:00:00 5.1 6 Sudoeste 13 Sudoeste 0 -- -- 83
2020-01-22 12:00:00 4.4 6 Sudoeste 13 Sudoeste 0 -- -- 85
2020-01-22 11:00:00 2 6 Este 11 Este 0 -- -- 94
2020-01-22 10:00:00 1.5 2 Este 9 Nordeste 0 -- -- 96
2020-01-22 09:00:00 0.8 2 Este 14 Sudoeste 0 -- -- 96
2020-01-22 08:00:00 1.1 10 Sudoeste 29 Nordeste 0 -- -- 93
2020-01-22 07:00:00 0.4 5 Norte 15 Sudoeste 0 -- -- 97
2020-01-22 06:00:00 0.4 6 Sudoeste 12 Sudoeste 0.2 -- -- 97
2020-01-22 05:00:00 0.6 5 Sudoeste 10 Oeste 1.6 -- -- 97
2020-01-22 04:00:00 0.1 0 Calma 5 Norte 4.8 -- -- 97
2020-01-22 03:00:00 0.2 2 Sudeste 10 Oeste 4.4 -- -- 95
2020-01-22 02:00:00 1.8 2 Noroeste 9 Oeste 0 -- -- 88
2020-01-22 01:00:00 1.3 6 Sudoeste 10 Oeste 0 -- -- 87
2020-01-22 00:00:00 0.2 2 Sur 9 Sudeste 0 -- -- 90
2020-01-21 23:00:00 0.1 2 Nordeste 6 Este 0 -- -- 91
2020-01-21 22:00:00 1.1 4 Sur 7 Noroeste 0 -- -- 87
2020-01-21 21:00:00 1 4 Norte 8 Sudeste 0 -- -- 89
2020-01-21 20:00:00 1.3 2 Norte 8 Sudeste 0 -- -- 87
2020-01-21 19:00:00 2.9 3 Este 9 Sudoeste 0 -- -- 84
2020-01-21 18:00:00 4.4 3 Sudeste 10 Oeste 0 -- -- 80
2020-01-21 17:00:00 5.7 0 Calma 10 Oeste 0 -- -- 82
2020-01-21 16:00:00 6.9 3 Norte 20 Sudoeste 0 -- -- 71
2020-01-21 15:00:00 7.7 3 Noroeste 12 Sudoeste 0 -- -- 61
2020-01-21 14:00:00 6.7 3 Sudeste 7 Este 0 -- -- 67
2020-01-21 13:00:00 7.2 3 Este 11 Oeste 0 -- -- 60
2020-01-21 12:00:00 6.2 8 Noroeste 16 Oeste 0 -- -- 63
2020-01-21 11:00:00 4.6 6 Este 14 Oeste 0 -- -- 74
2020-01-21 10:00:00 3 5 Norte 11 Este 0 -- -- 79
2020-01-21 09:00:00 1 4 Nordeste 14 Sudoeste 0 -- -- 87
2020-01-21 08:00:00 1.3 3 Nordeste 17 Oeste 0 -- -- 83
2020-01-21 07:00:00 1.2 3 Nordeste 9 Nordeste 0 -- -- 83
2020-01-21 06:00:00 1 4 Nordeste 10 Oeste 0 -- -- 81
2020-01-21 05:00:00 1.2 5 Este 14 Oeste 0 -- -- 73
2020-01-21 04:00:00 0.9 4 Sudeste 9 Noroeste 0 -- -- 74
2020-01-21 03:00:00 0.8 5 Oeste 10 Oeste 0 -- -- 70
2020-01-21 02:00:00 0.9 4 Sudeste 9 Sudeste 0 -- -- 70
2020-01-21 01:00:00 0.4 4 Nordeste 7 Sudoeste 0 -- -- 69
2020-01-21 00:00:00 -0.3 0 Calma 7 Sudeste 0 -- -- 72
2020-01-20 23:00:00 0.1 0 Calma 6 Sudeste 0 -- -- 69
2020-01-20 22:00:00 2.6 5 Sudoeste 22 Sudoeste 0 -- -- 56
2020-01-20 21:00:00 5 10 Norte 30 Este 0 -- -- 45
2020-01-20 20:00:00 3.7 7 Norte 22 Oeste 0 -- -- 49
2020-01-20 19:00:00 4.5 13 Norte 26 Norte 0 -- -- 45
2020-01-20 18:00:00 4.7 10 Norte 35 Norte 0 -- -- 43
2020-01-20 17:00:00 6.8 18 Norte 32 Norte 0 -- -- 38
2020-01-20 16:00:00 7.9 14 Nordeste 31 Nordeste 0 -- -- 35
2020-01-20 15:00:00 6.5 13 Nordeste 36 Nordeste 0 -- -- 37
2020-01-20 14:00:00 7.3 15 Norte 30 Norte 0 -- -- 35
2020-01-20 13:00:00 7.3 7 Nordeste 31 Norte 0 -- -- 34
2020-01-20 12:00:00 5.6 14 Norte 45 Este 0 -- -- 37
2020-01-20 11:00:00 4.5 21 Nordeste 43 Este 0 -- -- 36
2020-01-20 10:00:00 3.1 18 Nordeste 45 Este 0 -- -- 33
2020-01-20 09:00:00 2.6 15 Nordeste 45 Este 0 -- -- 28
2020-01-20 08:00:00 2.4 24 Este 51 Este 0 -- -- 23
2020-01-20 07:00:00 2.3 18 Este 45 Este 0 -- -- 14
2020-01-20 06:00:00 1.7 23 Este 61 Este 0 -- -- 18
2020-01-20 05:00:00 -0.2 31 Este 66 Este 0 -- -- 30
2020-01-20 04:00:00 -0.3 32 Este 63 Nordeste 0 -- -- 34
2020-01-20 03:00:00 -0.4 24 Este 56 Nordeste 0 -- -- 37
2020-01-20 02:00:00 0.7 29 Este 63 Este 0 -- -- 29
2020-01-20 01:00:00 -0.2 28 Este 64 Este 0 -- -- 37
2020-01-20 00:00:00 0 28 Nordeste 68 Este 0 -- -- 41
2020-01-19 23:00:00 -0.4 39 Nordeste 72 Este 0 -- -- 49
2020-01-19 22:00:00 -0.5 38 Este 81 Nordeste 0 -- -- 51
2020-01-19 21:00:00 -0.4 38 Nordeste 76 Este 0 -- -- 46
2020-01-19 20:00:00 -0.3 42 Este 85 Nordeste 0 -- -- 48
2020-01-19 19:00:00 0.1 39 Nordeste 72 Nordeste 0 -- -- 47
2020-01-19 18:00:00 0.6 37 Nordeste 76 Este 0 -- -- 45
2020-01-19 17:00:00 1.2 42 Este 84 Este 0 -- -- 42
2020-01-19 16:00:00 2.4 35 Nordeste 80 Nordeste 0 -- -- 40
2020-01-19 15:00:00 2.6 42 Este 76 Nordeste 0 -- -- 41
2020-01-19 14:00:00 3.6 39 Este 72 Este 0 -- -- 39
2020-01-19 13:00:00 4 40 Este 71 Nordeste 0 -- -- 40
2020-01-19 12:00:00 4.6 26 Nordeste 58 Este 0 -- -- 37
2020-01-19 11:00:00 4.5 27 Nordeste 69 Este 0 -- -- 38
2020-01-19 10:00:00 3.3 25 Nordeste 66 Nordeste 0 -- -- 43
2020-01-19 09:00:00 3.5 31 Este 64 Nordeste 0 -- -- 40
2020-01-19 08:00:00 4.5 32 Nordeste 67 Este 0 -- -- 55
2020-01-19 07:00:00 4.5 36 Este 59 Este 0 -- -- 57
2020-01-19 06:00:00 4.4 24 Este 44 Nordeste 0 -- -- 63
2020-01-19 05:00:00 0.2 3 Sur 8 Sudoeste 0.2 -- -- 96
2020-01-19 04:00:00 0 3 Oeste 7 Sudoeste 0 -- -- 94
2020-01-19 03:00:00 0.2 2 Sur 7 Sudoeste 0 -- -- 88
2020-01-19 02:00:00 1.1 3 Sudoeste 6 Oeste 0 -- -- 75
2020-01-19 01:00:00 1 0 Calma 5 Este 0 -- -- 75
2020-01-19 00:00:00 0.6 2 Sudeste 8 Sudoeste 0 -- -- 76
2020-01-18 23:00:00 0.8 0 Calma 5 Sudoeste 0 -- -- 73
2020-01-18 22:00:00 1 4 Sudoeste 9 Norte 0 -- -- 67
2020-01-18 21:00:00 -0.4 2 Sudeste 7 Norte 0 -- -- 73
2020-01-18 20:00:00 2.2 2 Este 6 Noroeste 0 -- -- 66
2020-01-18 19:00:00 2 0 Calma 5 Este 0 -- -- 65
2020-01-18 18:00:00 3 2 Sudeste 8 Sur 0 -- -- 59
2020-01-18 17:00:00 6.3 6 Sur 15 Sudoeste 0 -- -- 44
2020-01-18 16:00:00 8.2 4 Sur 15 Sur 0 -- -- 38
2020-01-18 15:00:00 8.5 9 Sudoeste 15 Oeste 0 -- -- 40
2020-01-18 14:00:00 6.2 4 Oeste 8 Sudoeste 0 -- -- 39
2020-01-18 13:00:00 5 4 Sudeste 7 Sur 0 -- -- 40
2020-01-18 12:00:00 2.9 0 Calma 5 Este 0 -- -- 50
2020-01-18 11:00:00 1.1 3 Norte 6 Sudoeste 0 -- -- 64
2020-01-18 10:00:00 -1.6 2 Sudoeste 8 Oeste 0 -- -- 80
2020-01-18 09:00:00 -2 2 Sudeste 11 Sudoeste 0 -- -- 77
2020-01-18 08:00:00 -2.1 0 Calma 7 Este 0 -- -- 79
2020-01-18 07:00:00 -2.6 0 Calma 8 Este 0 -- -- 80
2020-01-18 06:00:00 -3.5 4 Sur 9 Sudoeste 0 -- -- 86
2020-01-18 05:00:00 -4.1 2 Sudeste 5 Sudoeste 0 -- -- 85
2020-01-18 04:00:00 -5.2 3 Noroeste 6 Este 0 -- -- 89
2020-01-18 03:00:00 -5.2 5 Oeste 8 Oeste 0 -- -- 87
2020-01-18 02:00:00 -4.8 3 Sudoeste 6 Nordeste 0 -- -- 87
2020-01-18 01:00:00 -4.4 3 Sur 7 Noroeste 0 -- -- 84
2020-01-18 00:00:00 -3.6 2 Sudeste 9 Oeste 0 -- -- 82
2020-01-17 23:00:00 -2.8 3 Nordeste 8 Este 0 -- -- 79
2020-01-17 22:00:00 -1.8 5 Noroeste 12 Oeste 0 -- -- 80
2020-01-17 21:00:00 0 5 Sudoeste 24 Nordeste 0 -- -- 75
2020-01-17 20:00:00 4.7 12 Nordeste 35 Nordeste 0 -- -- 47
2020-01-17 19:00:00 3 10 Sudoeste 35 Este 0 -- -- 62
2020-01-17 18:00:00 4.1 8 Nordeste 22 Este 0 -- -- 52
2020-01-17 17:00:00 4.6 6 Sudoeste 23 Norte 0 -- -- 72
2020-01-17 16:00:00 5.9 9 Norte 34 Nordeste 0 -- -- 64
2020-01-17 15:00:00 7 5 Sur 9 Sur 0.2 -- -- 70
2020-01-17 14:00:00 5.8 2 Sudeste 30 Sudoeste 0 -- -- 77
2020-01-17 13:00:00 8.1 11 Sudoeste 28 Sudoeste 0 -- -- 57
2020-01-17 12:00:00 5.9 3 Nordeste 10 Sudoeste 0 -- -- 85
2020-01-17 11:00:00 3.6 3 Oeste 9 Oeste 0 -- -- 89
2020-01-17 10:00:00 1.1 5 Este 9 Sudeste 0 -- -- 97
2020-01-17 09:00:00 0.1 2 Este 7 Nordeste 0 -- -- 97
2020-01-17 08:00:00 0.9 3 Sur 5 Noroeste 0 -- -- 96
2020-01-17 07:00:00 1.6 3 Noroeste 5 Sudeste 0 -- -- 96
2020-01-17 06:00:00 1.5 2 Noroeste 9 Noroeste 0 -- -- 95
2020-01-17 05:00:00 1.8 3 Sur 13 Oeste 0 -- -- 91
2020-01-17 04:00:00 1.8 4 Oeste 12 Sudoeste 0 -- -- 89
2020-01-17 03:00:00 1.3 4 Norte 9 Oeste 0 -- -- 90
2020-01-17 02:00:00 1 0 Calma 10 Oeste 0 -- -- 90
2020-01-17 01:00:00 1.3 2 Sudeste 9 Oeste 0 -- -- 90
2020-01-17 00:00:00 1.9 4 Sur 10 Oeste 0 -- -- 85
2020-01-16 23:00:00 2.7 2 Noroeste 7 Sudoeste 0 -- -- 82
2020-01-16 22:00:00 2.9 2 Sudeste 8 Oeste 0 -- -- 80
2020-01-16 21:00:00 2.9 5 Sur 9 Oeste 0 -- -- 77
2020-01-16 20:00:00 1.4 3 Noroeste 6 Sudeste 0 -- -- 81
2020-01-16 19:00:00 1.5 0 Calma 5 Sudeste 0 -- -- 81
2020-01-16 18:00:00 4.4 0 Calma 8 Norte 0 -- -- 68
2020-01-16 17:00:00 11.1 4 Sudoeste 15 Sudoeste 0 -- -- 48
2020-01-16 16:00:00 12.4 7 Sudoeste 19 Sudoeste 0 -- -- 45
2020-01-16 15:00:00 11.4 4 Sur 13 Sudoeste 0 -- -- 45
2020-01-16 14:00:00 8.7 3 Sur 6 Oeste 0 -- -- 51
2020-01-16 13:00:00 6.7 0 Calma 5 Noroeste 0 -- -- 54
2020-01-16 12:00:00 4.2 0 Calma 4 Este 0 -- -- 62
2020-01-16 11:00:00 0.5 0 Calma 7 Oeste 0 -- -- 83
2020-01-16 10:00:00 -4.3 2 Norte 8 Oeste 0 -- -- 96
2020-01-16 09:00:00 -5.1 0 Calma 5 Nordeste 0 -- -- 96
2020-01-16 08:00:00 -4.8 3 Este 5 Sudeste 0 -- -- 97
2020-01-16 07:00:00 -4.6 2 Nordeste 5 Sudeste 0 -- -- 97
2020-01-16 06:00:00 -4.6 2 Norte 5 Sudeste 0 -- -- 96
2020-01-16 05:00:00 -4.1 2 Nordeste 5 Sudeste 0 -- -- 95
2020-01-16 04:00:00 -3.4 3 Este 5 Este 0 -- -- 96
2020-01-16 03:00:00 -3.7 0 Calma 4 Sudeste 0 -- -- 96
2020-01-16 02:00:00 -2.8 2 Nordeste 4 Este 0 -- -- 94
2020-01-16 01:00:00 -3.3 0 Calma 4 Sudoeste 0 -- -- 92
2020-01-16 00:00:00 -2.2 0 Calma 5 Sudeste 0 -- -- 91
2020-01-15 23:00:00 -1.7 0 Calma 6 Sudeste 0 -- -- 91
2020-01-15 22:00:00 -0.7 2 Sudoeste 5 Sudeste 0 -- -- 85
2020-01-15 21:00:00 -0.1 0 Calma 5 Nordeste 0 -- -- 86
2020-01-15 20:00:00 0.7 0 Calma 11 Norte 0 -- -- 80
2020-01-15 19:00:00 1.5 3 Nordeste 6 Norte 0 -- -- 77
2020-01-15 18:00:00 3.4 3 Sudeste 6 Sudeste 0 -- -- 68
2020-01-15 17:00:00 9.9 0 Calma 12 Sudoeste 0 -- -- 48
2020-01-15 16:00:00 12.3 5 Sudoeste 14 Sudoeste 0 -- -- 39
2020-01-15 15:00:00 10.7 4 Sudoeste 9 Sudoeste 0 -- -- 40
2020-01-15 14:00:00 9.3 7 Sudoeste 12 Sudoeste 0 -- -- 38
2020-01-15 13:00:00 6.6 4 Sudoeste 8 Sudoeste 0 -- -- 40
2020-01-15 12:00:00 3.2 2 Este 8 Sudeste 0 -- -- 50
2020-01-15 11:00:00 -0.3 3 Sudeste 6 Sudeste 0 -- -- 69
2020-01-15 10:00:00 -4.5 4 Este 14 Oeste 0 -- -- 83
2020-01-15 09:00:00 -5.5 2 Sudeste 4 Sudeste 0 -- -- 87
2020-01-15 08:00:00 -6.3 0 Calma 6 Sudeste 0 -- -- 87
2020-01-15 07:00:00 -5.9 3 Nordeste 4 Este 0 -- -- 87
2020-01-15 06:00:00 -6.1 2 Sur 4 Oeste 0 -- -- 87
2020-01-15 05:00:00 -6.3 0 Calma 5 Sudeste 0 -- -- 88
2020-01-15 04:00:00 -5.5 0 Calma 5 Este 0 -- -- 84
2020-01-15 03:00:00 -5.9 0 Calma 4 Nordeste 0 -- -- 82
2020-01-15 02:00:00 -5.2 2 Nordeste 5 Oeste 0 -- -- 83
2020-01-15 01:00:00 -4.4 2 Este 4 Sudeste 0 -- -- 77
2020-01-15 00:00:00 -4.9 0 Calma 4 Sudeste 0 -- -- 82
2020-01-14 23:00:00 -4.1 0 Calma 5 Sudeste 0 -- -- 77
2020-01-14 22:00:00 -3.4 2 Este 3 Este 0 -- -- 77
2020-01-14 21:00:00 -2.6 0 Calma 4 Sudeste 0 -- -- 73
2020-01-14 20:00:00 -1.5 2 Este 5 Sudeste 0 -- -- 67
2020-01-14 19:00:00 0.1 3 Este 5 Este 0 -- -- 62
2020-01-14 18:00:00 1.8 3 Nordeste 9 Sur 0 -- -- 60
2020-01-14 17:00:00 9.4 6 Sudoeste 11 Sudoeste 0 -- -- 34
2020-01-14 16:00:00 11.8 6 Oeste 12 Oeste 0 -- -- 31
2020-01-14 15:00:00 11.9 6 Sudoeste 9 Oeste 0 -- -- 27
2020-01-14 14:00:00 9.1 4 Oeste 10 Oeste 0 -- -- 30
2020-01-14 13:00:00 6.9 3 Sudoeste 9 Sudoeste 0 -- -- 31
2020-01-14 12:00:00 4.7 2 Sudeste 6 Oeste 0 -- -- 38
2020-01-14 11:00:00 1.9 2 Sudeste 5 Sudeste 0 -- -- 56
2020-01-14 10:00:00 -3.3 3 Este 8 Oeste 0 -- -- 77
2020-01-14 09:00:00 -4.6 4 Norte 8 Sudeste 0 -- -- 81
2020-01-14 08:00:00 -5.7 2 Sudeste 4 Sudoeste 0 -- -- 78
2020-01-14 07:00:00 -5.4 3 Este 6 Oeste 0 -- -- 77
2020-01-14 06:00:00 -5.4 0 Calma 6 Sudeste 0 -- -- 80
2020-01-14 05:00:00 -4.6 2 Noroeste 7 Este 0 -- -- 78
2020-01-14 04:00:00 -5.5 3 Este 5 Este 0 -- -- 79
2020-01-14 03:00:00 -5 2 Nordeste 5 Este 0 -- -- 78
2020-01-14 02:00:00 -4.7 3 Sudeste 6 Sudeste 0 -- -- 78
2020-01-14 01:00:00 -4.4 0 Calma 5 Sudeste 0 -- -- 76
2020-01-14 00:00:00 -4.3 0 Calma 4 Nordeste 0 -- -- 75
2020-01-13 23:00:00 -3.7 2 Sudeste 5 Sudeste 0 -- -- 76
2020-01-13 22:00:00 -2.9 2 Este 4 Sudeste 0 -- -- 72
2020-01-13 21:00:00 -2.4 3 Este 5 Oeste 0 -- -- 70
2020-01-13 20:00:00 -1.7 3 Este 7 Sudeste 0 -- -- 68
2020-01-13 19:00:00 0.3 3 Nordeste 9 Norte 0 -- -- 65
2020-01-13 18:00:00 2.3 3 Nordeste 8 Oeste 0 -- -- 60
2020-01-13 17:00:00 6.1 2 Oeste 9 Sudoeste 0 -- -- 44
2020-01-13 16:00:00 9.3 3 Sudoeste 12 Sudoeste 0 -- -- 31
2020-01-13 15:00:00 10.8 7 Sudoeste 11 Oeste 0 -- -- 28
2020-01-13 14:00:00 9.1 3 Sudoeste 8 Sudoeste 0 -- -- 26
2020-01-13 13:00:00 6.4 2 Sur 6 Sudoeste 0 -- -- 37
2020-01-13 12:00:00 3.6 0 Calma 6 Sudeste 0 -- -- 44
2020-01-13 11:00:00 0.3 0 Calma 5 Este 0 -- -- 55
2020-01-13 10:00:00 -4.2 0 Calma 6 Sudeste 0 -- -- 74
2020-01-13 09:00:00 -6.1 0 Calma 4 Este 0 -- -- 80
2020-01-13 08:00:00 -6.2 3 Este 4 Sudeste 0 -- -- 78
2020-01-13 07:00:00 -6.4 3 Este 5 Sudeste 0 -- -- 79
2020-01-13 06:00:00 -6.2 3 Este 5 Sudeste 0 -- -- 79
2020-01-13 05:00:00 -5.5 0 Calma 5 Nordeste 0 -- -- 77
2020-01-13 04:00:00 -5.4 0 Calma 6 Sudeste 0 -- -- 78
2020-01-13 03:00:00 -5.4 3 Este 5 Sudeste 0 -- -- 78
2020-01-13 02:00:00 -4.8 2 Nordeste 9 Sudoeste 0 -- -- 75
2020-01-13 01:00:00 -4.1 3 Nordeste 5 Sudeste 0 -- -- 79
2020-01-13 00:00:00 -4 4 Nordeste 6 Este 0 -- -- 78
2020-01-12 23:00:00 -3.5 3 Este 6 Sudeste 0 -- -- 74
2020-01-12 22:00:00 -3.2 2 Oeste 5 Sudeste 0 -- -- 78
2020-01-12 21:00:00 -2.5 0 Calma 4 Este 0 -- -- 74
2020-01-12 20:00:00 -2 2 Sudoeste 5 Sudeste 0 -- -- 73
2020-01-12 19:00:00 0.8 3 Este 7 Nordeste 0 -- -- 58
2020-01-12 18:00:00 2.7 3 Nordeste 6 Nordeste 0 -- -- 50
2020-01-12 17:00:00 8.8 5 Sudoeste 10 Sudoeste 0 -- -- 35
2020-01-12 16:00:00 12 6 Oeste 14 Sudoeste 0 -- -- 25
2020-01-12 15:00:00 12.2 6 Sudoeste 9 Oeste 0 -- -- 23
2020-01-12 14:00:00 9.9 6 Sudoeste 9 Sudoeste 0 -- -- 24
2020-01-12 13:00:00 7.3 3 Sudeste 4 Sudeste 0 -- -- 30
2020-01-12 12:00:00 4.4 2 Sur 6 Sudeste 0 -- -- 33
2020-01-12 11:00:00 0.4 0 Calma 7 Este 0 -- -- 51
2020-01-12 10:00:00 -5.5 2 Norte 6 Este 0 -- -- 75
2020-01-12 09:00:00 -6.3 3 Este 7 Sudeste 0 -- -- 76
2020-01-12 08:00:00 -6.1 0 Calma 7 Sudeste 0 -- -- 74
2020-01-12 07:00:00 -6.2 2 Sudoeste 5 Este 0 -- -- 74
2020-01-12 06:00:00 -5.9 0 Calma 5 Este 0 -- -- 76
2020-01-12 05:00:00 -5.7 0 Calma 6 Este 0 -- -- 71
2020-01-12 04:00:00 -5.4 3 Nordeste 5 Sudeste 0 -- -- 71
2020-01-12 03:00:00 -5.5 3 Este 8 Sudeste 0 -- -- 71
2020-01-12 02:00:00 -5.1 2 Este 6 Este 0 -- -- 74
2020-01-12 01:00:00 -5 3 Nordeste 6 Sudeste 0 -- -- 75
2020-01-12 00:00:00 -4.4 3 Este 6 Sudeste 0 -- -- 68
2020-01-11 23:00:00 -4 2 Este 4 Sudeste 0 -- -- 70
2020-01-11 22:00:00 -3.7 2 Este 6 Sudeste 0 -- -- 67
2020-01-11 21:00:00 -2.5 0 Calma 8 Este 0 -- -- 63
2020-01-11 20:00:00 -1.8 4 Sur 9 Sudeste 0 -- -- 63
2020-01-11 19:00:00 -0.5 3 Nordeste 11 Sudeste 0 -- -- 59
2020-01-11 18:00:00 1.5 3 Sudeste 8 Sudeste 0 -- -- 51
2020-01-11 17:00:00 8.4 4 Sur 18 Sudoeste 0 -- -- 33
2020-01-11 16:00:00 11.5 12 Sudoeste 17 Sudoeste 0 -- -- 25
2020-01-11 15:00:00 11.7 9 Sudoeste 15 Sudoeste 0 -- -- 24
2020-01-11 14:00:00 9.6 5 Oeste 11 Oeste 0 -- -- 23
2020-01-11 13:00:00 7.1 2 Sudeste 9 Oeste 0 -- -- 26
2020-01-11 12:00:00 5.2 5 Oeste 10 Oeste 0 -- -- 29
2020-01-11 11:00:00 2.5 3 Sudeste 8 Sudoeste 0 -- -- 41
2020-01-11 10:00:00 -3.5 4 Este 8 Sudeste 0 -- -- 62
2020-01-11 09:00:00 -3.9 3 Sudeste 9 Nordeste 0 -- -- 64
2020-01-11 08:00:00 -2.7 3 Sudoeste 10 Oeste 0 -- -- 55
2020-01-11 07:00:00 -0.5 8 Oeste 17 Sudoeste 0 -- -- 43
2020-01-11 06:00:00 3.3 7 Sudeste 31 Nordeste 0 -- -- 29
2020-01-11 05:00:00 6 18 Nordeste 39 Nordeste 0 -- -- 20
2020-01-11 04:00:00 6.3 21 Nordeste 47 Nordeste 0 -- -- 20
2020-01-11 03:00:00 6.4 19 Este 40 Nordeste 0 -- -- 21
2020-01-11 02:00:00 6 14 Este 41 Este 0 -- -- 22
2020-01-11 01:00:00 6.7 24 Este 54 Este 0 -- -- 21
2020-01-11 00:00:00 6.8 21 Nordeste 57 Nordeste 0 -- -- 21
2020-01-10 23:00:00 6.7 28 Este 58 Nordeste 0 -- -- 23
2020-01-10 22:00:00 6.8 28 Este 63 Este 0 -- -- 25
2020-01-10 21:00:00 6.5 30 Este 63 Este 0 -- -- 29
2020-01-10 20:00:00 6.1 32 Este 58 Nordeste 0 -- -- 38
2020-01-10 19:00:00 5.5 27 Nordeste 65 Este 0 -- -- 44
2020-01-10 18:00:00 6.1 24 Nordeste 48 Nordeste 0 -- -- 40
2020-01-10 17:00:00 7 25 Nordeste 48 Este 0 -- -- 43
2020-01-10 16:00:00 7.9 20 Este 52 Nordeste 0 -- -- 44
2020-01-10 15:00:00 8.1 19 Este 41 Este 0 -- -- 43
2020-01-10 14:00:00 7.6 21 Nordeste 44 Este 0 -- -- 42
2020-01-10 13:00:00 7.5 21 Este 50 Este 0 -- -- 46
2020-01-10 12:00:00 7.2 18 Este 51 Nordeste 0 -- -- 48
2020-01-10 11:00:00 6.9 24 Este 47 Este 0 -- -- 45
2020-01-10 10:00:00 5.1 22 Este 41 Este 0 -- -- 49
2020-01-10 09:00:00 4.6 16 Nordeste 35 Nordeste 0 -- -- 50
2020-01-10 08:00:00 4.2 15 Nordeste 42 Este 0 -- -- 64
2020-01-10 07:00:00 5.1 18 Nordeste 40 Este 0 -- -- 56
2020-01-10 06:00:00 4.7 10 Este 34 Nordeste 0.2 -- -- 65
2020-01-10 05:00:00 5.5 14 Nordeste 44 Nordeste 0 -- -- 63
2020-01-10 04:00:00 4.5 23 Nordeste 51 Este 0.4 -- -- 75
2020-01-10 03:00:00 2.2 3 Sur 9 Sudoeste 0 -- -- 85
2020-01-10 02:00:00 2.3 0 Calma 6 Este 0 -- -- 84
2020-01-10 01:00:00 2.3 0 Calma 7 Sudoeste 0 -- -- 82
2020-01-10 00:00:00 3.5 5 Sudoeste 14 Sudoeste 0 -- -- 79
2020-01-09 23:00:00 3.4 4 Sudoeste 6 Sudoeste 0 -- -- 78
2020-01-09 22:00:00 3.6 2 Este 9 Oeste 0 -- -- 77
2020-01-09 21:00:00 3.3 3 Sudeste 15 Oeste 0 -- -- 77
2020-01-09 20:00:00 3.4 4 Este 8 Este 0 -- -- 76
2020-01-09 19:00:00 4.2 3 Sudeste 7 Norte 0 -- -- 71
2020-01-09 18:00:00 4.8 0 Calma 11 Sur 0 -- -- 69
2020-01-09 17:00:00 9.4 5 Sur 14 Sudeste 0 -- -- 51
2020-01-09 16:00:00 11.9 6 Sur 19 Sudoeste 0 -- -- 44
2020-01-09 15:00:00 11.8 5 Sur 14 Sudoeste 0 -- -- 45
2020-01-09 14:00:00 9.4 3 Oeste 9 Oeste 0 -- -- 54
2020-01-09 13:00:00 7.5 2 Sudeste 5 Sudeste 0 -- -- 60
2020-01-09 12:00:00 4.8 3 Sudeste 5 Sudeste 0 -- -- 75
2020-01-09 11:00:00 1.2 0 Calma 4 Sudeste 0 -- -- 93
2020-01-09 10:00:00 -1.9 3 Sudeste 5 Sudeste 0 -- -- 98
2020-01-09 09:00:00 -3.2 3 Este 4 Sudeste 0 -- -- 98
2020-01-09 08:00:00 -3.3 2 Este 5 Oeste 0 -- -- 98
2020-01-09 07:00:00 -3.2 0 Calma 4 Sudeste 0 -- -- 96
2020-01-09 06:00:00 -3 0 Calma 5 Sudeste 0 -- -- 98
2020-01-09 05:00:00 -2.2 2 Este 5 Este 0 -- -- 96
2020-01-09 04:00:00 -2.3 3 Oeste 5 Oeste 0 -- -- 95
2020-01-09 03:00:00 -2.1 0 Calma 4 Este 0 -- -- 95
2020-01-09 02:00:00 -1.7 2 Este 8 Oeste 0 -- -- 94
2020-01-09 01:00:00 -1.5 2 Nordeste 5 Nordeste 0 -- -- 93
2020-01-09 00:00:00 -1.2 0 Calma 6 Este 0 -- -- 89
2020-01-08 23:00:00 -1 0 Calma 4 Este 0 -- -- 91
2020-01-08 22:00:00 -0.5 2 Sudeste 5 Sudeste 0 -- -- 89
2020-01-08 21:00:00 0.1 0 Calma 3 Sudeste 0 -- -- 85
2020-01-08 20:00:00 1.2 2 Este 3 Sudeste 0 -- -- 81
2020-01-08 19:00:00 2.5 0 Calma 5 Sudeste 0 -- -- 77
2020-01-08 18:00:00 4.6 2 Este 7 Sur 0 -- -- 69
2020-01-08 17:00:00 9.6 5 Sur 18 Sudoeste 0 -- -- 51
2020-01-08 16:00:00 13.1 9 Sudoeste 17 Sudoeste 0 -- -- 39
2020-01-08 15:00:00 13.7 8 Sudoeste 17 Sudoeste 0 -- -- 40
2020-01-08 14:00:00 11.7 8 Sudoeste 17 Sudoeste 0 -- -- 42
2020-01-08 13:00:00 10.5 4 Sudoeste 8 Oeste 0 -- -- 47
2020-01-08 12:00:00 8.8 3 Sudeste 11 Oeste 0 -- -- 52
2020-01-08 11:00:00 6.2 0 Calma 6 Sudeste 0 -- -- 65
2020-01-08 10:00:00 0.5 3 Nordeste 9 Sudoeste 0 -- -- 82
2020-01-08 09:00:00 0.1 3 Nordeste 8 Sudoeste 0 -- -- 82
2020-01-08 08:00:00 -0.3 4 Sudoeste 8 Sudoeste 0 -- -- 83
2020-01-08 07:00:00 0.3 4 Sur 10 Nordeste 0 -- -- 81
2020-01-08 06:00:00 -0.1 4 Este 8 Este 0 -- -- 81
2020-01-08 05:00:00 0.3 3 Sur 6 Sudeste 0 -- -- 81
2020-01-08 04:00:00 0.8 3 Nordeste 12 Sudoeste 0 -- -- 78
2020-01-08 03:00:00 2.1 6 Sudoeste 14 Sudoeste 0 -- -- 72
2020-01-08 02:00:00 1.4 4 Oeste 10 Este 0 -- -- 77
2020-01-08 01:00:00 1.1 3 Nordeste 6 Este 0 -- -- 79
2020-01-08 00:00:00 2 3 Nordeste 7 Este 0 -- -- 76
2020-01-07 23:00:00 2.8 2 Este 9 Oeste 0 -- -- 71
2020-01-07 22:00:00 5.9 7 Sudoeste 23 Este 0 -- -- 61
2020-01-07 21:00:00 9.3 8 Oeste 26 Este 0 -- -- 48
2020-01-07 20:00:00 5.8 4 Oeste 13 Nordeste 0 -- -- 58
2020-01-07 19:00:00 4 3 Oeste 9 Este 0 -- -- 63
2020-01-07 18:00:00 6.7 3 Nordeste 14 Sudoeste 0 -- -- 54
2020-01-07 17:00:00 9.9 5 Oeste 12 Oeste 0 -- -- 41
2020-01-07 16:00:00 14.4 5 Sudoeste 18 Sudeste 0 -- -- 34
2020-01-07 15:00:00 14.8 5 Sudoeste 12 Oeste 0 -- -- 28
2020-01-07 14:00:00 11.7 3 Sudeste 5 Sudoeste 0 -- -- 32
2020-01-07 13:00:00 9.9 5 Sudoeste 8 Sudoeste 0 -- -- 40
2020-01-07 12:00:00 7 3 Sudoeste 6 Sudeste 0 -- -- 45
2020-01-07 11:00:00 2.6 0 Calma 6 Este 0 -- -- 68
2020-01-07 10:00:00 -2.7 3 Nordeste 6 Nordeste 0 -- -- 84
2020-01-07 09:00:00 -3.5 0 Calma 6 Nordeste 0 -- -- 82
2020-01-07 08:00:00 -3.9 0 Calma 6 Sudeste 0 -- -- 85
2020-01-07 07:00:00 -4.3 3 Sudeste 6 Sudeste 0 -- -- 84
2020-01-07 06:00:00 -3.7 3 Nordeste 5 Nordeste 0 -- -- 81
2020-01-07 05:00:00 -4 0 Calma 5 Este 0 -- -- 84
2020-01-07 04:00:00 -3.4 3 Sudeste 6 Sudeste 0 -- -- 82
2020-01-07 03:00:00 -3.1 2 Norte 9 Nordeste 0 -- -- 82
2020-01-07 02:00:00 -3 4 Sudoeste 8 Sudoeste 0 -- -- 83
2020-01-07 01:00:00 -2.2 4 Este 8 Nordeste 0 -- -- 81
2020-01-07 00:00:00 -2.6 2 Oeste 7 Sudeste 0 -- -- 85
2020-01-06 23:00:00 -1.9 3 Nordeste 6 Sudeste 0 -- -- 82
2020-01-06 22:00:00 -1.5 3 Este 6 Sudeste 0 -- -- 84
2020-01-06 21:00:00 -0.7 3 Nordeste 8 Sudoeste 0 -- -- 84
2020-01-06 20:00:00 -0.1 3 Sudeste 7 Oeste 0 -- -- 79
2020-01-06 19:00:00 1.2 3 Este 6 Sudeste 0 -- -- 75
2020-01-06 18:00:00 2.5 0 Calma 5 Sudeste 0 -- -- 70
2020-01-06 17:00:00 8 3 Sur 10 Sudoeste 0 -- -- 51
2020-01-06 16:00:00 12.8 7 Sudoeste 17 Sudoeste 0 -- -- 35
2020-01-06 15:00:00 12.7 6 Sudoeste 9 Oeste 0 -- -- 33
2020-01-06 14:00:00 10 4 Sur 8 Oeste 0 -- -- 40
2020-01-06 13:00:00 7.9 2 Sudeste 6 Oeste 0 -- -- 43
2020-01-06 12:00:00 4.9 0 Calma 3 Sudoeste 0 -- -- 58
2020-01-06 11:00:00 2.4 0 Calma 4 Este 0 -- -- 70
2020-01-06 10:00:00 -3.2 0 Calma 3 Sudoeste 0 -- -- 89